»·PEaware :: N143VT KUDD-KSBA

N143VT :: KUDD-KSBA

FLIGHT INFORMATION

Flight Status: Arrived
Operator: Privately registered:
United States
More flights under this callsign
Pilot: Anonymous 16492 (16492)
Aircraft: ECLIPSE 500
(EA50)
More flights by this aircraft type
Origin: KUDD Bermuda Dunes
United States
Destination: KSBA Santa Barbara Mun
United States
More flights between these airports :: More routes between these airports
Route: + PSP V386 FIM V186 DEANO KWANG
File this flight plan on PilotEdge
Remarks: PSPN17
Altitude:
(Current/Filed)
12,000ft
Speed:
(Current/Filed)
250kts
Departed: 04-Jan-18 08:40 AM
Arrived: 04-Jan-18 09:35 AM
Distance/Time
Traveled:
182nm/0:55
Distance/Time
To Go:
Arrived

Flight Plot

Page will automatically refresh every two minutes.

Flight plan parsing failed; only flown route is shown


Map Options




Map Legend


Flown Route
Filed Route
Departure Airport
Arrival Airport
Navaid (VOR, NDB)
Fix

Horizontal Profiles

Position Reports

Time Latitude Longitude Heading Altitude Ground
Speed
04-Jan-18 08:25 33.744819 -116.269557 270 63ft 0kts
04-Jan-18 08:26 33.744819 -116.269557 270 63ft 0kts
04-Jan-18 08:27 33.744819 -116.269557 270 63ft 0kts
04-Jan-18 08:28 33.744819 -116.269557 270 63ft 0kts
04-Jan-18 08:29 33.744819 -116.269557 270 63ft 0kts
04-Jan-18 08:30 33.744819 -116.269557 270 63ft 0kts
04-Jan-18 08:31 33.744819 -116.269557 270 63ft 0kts
04-Jan-18 08:32 33.744819 -116.269557 270 63ft 0kts
04-Jan-18 08:33 33.744819 -116.269557 270 63ft 0kts
04-Jan-18 08:34 33.744819 -116.269557 270 63ft 0kts
04-Jan-18 08:35 33.744819 -116.269557 270 63ft 0kts
04-Jan-18 08:36 33.744819 -116.269557 270 63ft 0kts
04-Jan-18 08:37 33.744819 -116.269557 270 63ft 0kts
04-Jan-18 08:38 33.744819 -116.269557 270 63ft 0kts
04-Jan-18 08:39 33.744819 -116.269557 270 63ft 0kts
04-Jan-18 08:40 33.744819 -116.269557 269 63ft 0kts
04-Jan-18 08:41 33.744819 -116.269557 269 63ft 0kts
04-Jan-18 08:42 33.744819 -116.269557 270 63ft 0kts
04-Jan-18 08:43 33.745658 -116.269249 117 63ft 5kts
04-Jan-18 08:44 33.745158 -116.268082 115 63ft 4kts
04-Jan-18 08:45 33.745467 -116.267599 297 63ft 0kts
04-Jan-18 08:46 33.752654 -116.284659 300 431ft 113kts
04-Jan-18 08:47 33.776905 -116.316759 316 2052ft 153kts
04-Jan-18 08:48 33.808671 -116.354418 315 4243ft 166kts
04-Jan-18 08:49 33.841084 -116.394282 314 6385ft 171kts
04-Jan-18 08:50 33.876944 -116.431042 340 8390ft 175kts
04-Jan-18 08:51 33.923478 -116.449903 340 10244ft 180kts
04-Jan-18 08:52 33.971572 -116.469026 340 11964ft 186kts
04-Jan-18 08:53 34.020928 -116.488475 339 13597ft 189kts
04-Jan-18 08:54 34.063802 -116.518442 289 15100ft 187kts
04-Jan-18 08:55 34.085228 -116.575950 294 16532ft 190kts
04-Jan-18 08:56 34.107099 -116.634246 293 17870ft 192kts
04-Jan-18 08:57 34.129179 -116.693206 293 19137ft 194kts
04-Jan-18 08:58 34.151628 -116.753256 293 20179ft 205kts
04-Jan-18 08:59 34.177759 -116.823305 293 20200ft 252kts
04-Jan-18 09:00 34.208357 -116.905463 293 20203ft 280kts
04-Jan-18 09:01 34.241146 -116.993670 292 20202ft 295kts
04-Jan-18 09:02 34.274814 -117.084544 291 20202ft 297kts
04-Jan-18 09:03 34.308474 -117.175784 291 20202ft 298kts
04-Jan-18 09:04 34.342210 -117.267475 291 20209ft 298kts
04-Jan-18 09:05 34.375844 -117.359106 291 20220ft 298kts
04-Jan-18 09:06 34.409417 -117.450816 291 20226ft 298kts
04-Jan-18 09:07 34.442980 -117.542755 291 20225ft 298kts
04-Jan-18 09:08 34.476391 -117.634534 291 20231ft 300kts
04-Jan-18 09:09 34.508636 -117.723371 291 20236ft 299kts
04-Jan-18 09:10 34.541911 -117.815288 291 20236ft 299kts
04-Jan-18 09:11 34.575257 -117.907671 291 20238ft 298kts
04-Jan-18 09:12 34.608404 -117.999776 291 20237ft 298kts
04-Jan-18 09:13 34.616161 -118.094250 252 20238ft 295kts
04-Jan-18 09:14 34.588672 -118.187934 250 20240ft 295kts
04-Jan-18 09:15 34.558840 -118.280578 249 20243ft 294kts
04-Jan-18 09:16 34.528304 -118.372789 249 20239ft 295kts
04-Jan-18 09:17 34.497386 -118.465238 249 19180ft 285kts
04-Jan-18 09:18 34.470589 -118.544959 249 17803ft 246kts
04-Jan-18 09:19 34.444366 -118.622763 248 16281ft 245kts
04-Jan-18 09:20 34.419179 -118.697269 248 14799ft 241kts
04-Jan-18 09:21 34.394265 -118.770777 248 13982ft 235kts
04-Jan-18 09:22 34.368768 -118.845907 247 13227ft 242kts
04-Jan-18 09:23 34.354651 -118.921374 262 11725ft 231kts
04-Jan-18 09:24 34.348496 -118.997582 263 10226ft 226kts
04-Jan-18 09:25 34.342725 -119.072452 265 8723ft 222kts
04-Jan-18 09:26 34.337116 -119.146709 266 7220ft 222kts
04-Jan-18 09:27 34.331744 -119.220860 263 5987ft 220kts
04-Jan-18 09:28 34.326369 -119.291248 262 5972ft 204kts
04-Jan-18 09:29 34.320901 -119.361465 264 5204ft 217kts
04-Jan-18 09:30 34.315478 -119.429909 267 3985ft 182kts
04-Jan-18 09:31 34.311286 -119.484943 267 3978ft 166kts
04-Jan-18 09:32 34.318894 -119.537719 295 3101ft 170kts
04-Jan-18 09:33 34.337181 -119.586356 296 2074ft 133kts
04-Jan-18 09:34 34.350267 -119.620363 297 2087ft 113kts
04-Jan-18 09:35 34.363535 -119.654659 296 2083ft 111kts
04-Jan-18 09:36 34.376609 -119.688403 296 2081ft 110kts
04-Jan-18 09:37 34.389932 -119.723220 296 1394ft 107kts
04-Jan-18 09:38 34.402533 -119.756728 296 920ft 107kts
04-Jan-18 09:39 34.414929 -119.789744 296 902ft 108kts
04-Jan-18 09:40 34.427933 -119.822999 280 313ft 114kts
04-Jan-18 09:41 34.427699 -119.845968 314 15ft 14kts
04-Jan-18 09:42 34.429179 -119.846126 134 15ft 0kts

Navigation Log

Ident Type
Flight plan parsing failed, navigation log unavailable